sensor_id;sensor_type;location;lat;lon;timestamp;P1;durP1;ratioP1;P2;durP2;ratioP2
84021;SDS011;74108;48.636;9.492;2024-02-15T00:00:15;8.70;;;4.32;;
84021;SDS011;74108;48.636;9.492;2024-02-15T00:02:42;9.52;;;4.53;;
84021;SDS011;74108;48.636;9.492;2024-02-15T00:05:10;10.18;;;4.63;;
84021;SDS011;74108;48.636;9.492;2024-02-15T00:07:36;10.45;;;4.90;;
84021;SDS011;74108;48.636;9.492;2024-02-15T00:10:04;10.73;;;4.93;;
84021;SDS011;74108;48.636;9.492;2024-02-15T00:12:34;6.72;;;3.95;;
84021;SDS011;74108;48.636;9.492;2024-02-15T00:14:59;7.50;;;3.92;;
84021;SDS011;74108;48.636;9.492;2024-02-15T00:17:28;8.65;;;4.22;;
84021;SDS011;74108;48.636;9.492;2024-02-15T00:19:54;8.25;;;3.95;;
84021;SDS011;74108;48.636;9.492;2024-02-15T00:22:20;6.53;;;3.67;;
84021;SDS011;74108;48.636;9.492;2024-02-15T00:24:46;6.30;;;3.80;;
84021;SDS011;74108;48.636;9.492;2024-02-15T00:27:14;6.90;;;3.40;;
84021;SDS011;74108;48.636;9.492;2024-02-15T00:29:41;7.00;;;3.85;;
84021;SDS011;74108;48.636;9.492;2024-02-15T00:32:06;5.32;;;3.58;;
84021;SDS011;74108;48.636;9.492;2024-02-15T00:34:32;5.85;;;3.40;;
84021;SDS011;74108;48.636;9.492;2024-02-15T00:36:58;5.03;;;3.40;;
84021;SDS011;74108;48.636;9.492;2024-02-15T00:39:24;5.57;;;3.45;;
84021;SDS011;74108;48.636;9.492;2024-02-15T00:41:50;6.97;;;3.45;;
84021;SDS011;74108;48.636;9.492;2024-02-15T00:44:16;5.63;;;3.28;;
84021;SDS011;74108;48.636;9.492;2024-02-15T00:46:42;5.93;;;3.45;;
84021;SDS011;74108;48.636;9.492;2024-02-15T00:49:08;5.35;;;3.25;;
84021;SDS011;74108;48.636;9.492;2024-02-15T00:51:35;7.07;;;3.63;;
84021;SDS011;74108;48.636;9.492;2024-02-15T00:54:01;4.97;;;3.03;;
84021;SDS011;74108;48.636;9.492;2024-02-15T00:56:28;6.53;;;3.70;;
84021;SDS011;74108;48.636;9.492;2024-02-15T00:58:56;7.82;;;4.43;;
84021;SDS011;74108;48.636;9.492;2024-02-15T01:01:22;7.93;;;4.07;;
84021;SDS011;74108;48.636;9.492;2024-02-15T01:03:47;7.65;;;4.18;;
84021;SDS011;74108;48.636;9.492;2024-02-15T01:06:13;6.90;;;3.95;;
84021;SDS011;74108;48.636;9.492;2024-02-15T01:08:38;6.60;;;3.83;;
84021;SDS011;74108;48.636;9.492;2024-02-15T01:11:04;7.82;;;3.90;;
84021;SDS011;74108;48.636;9.492;2024-02-15T01:13:31;7.78;;;3.83;;
84021;SDS011;74108;48.636;9.492;2024-02-15T01:15:57;5.95;;;3.47;;
84021;SDS011;74108;48.636;9.492;2024-02-15T01:18:22;6.20;;;3.40;;
84021;SDS011;74108;48.636;9.492;2024-02-15T01:20:48;5.80;;;2.90;;
84021;SDS011;74108;48.636;9.492;2024-02-15T01:23:13;6.05;;;3.47;;
84021;SDS011;74108;48.636;9.492;2024-02-15T01:25:39;6.13;;;3.08;;
84021;SDS011;74108;48.636;9.492;2024-02-15T01:28:05;6.63;;;3.00;;
84021;SDS011;74108;48.636;9.492;2024-02-15T01:30:31;6.78;;;3.45;;
84021;SDS011;74108;48.636;9.492;2024-02-15T01:32:57;5.72;;;3.20;;
84021;SDS011;74108;48.636;9.492;2024-02-15T01:35:23;6.32;;;3.13;;
84021;SDS011;74108;48.636;9.492;2024-02-15T01:37:49;6.40;;;2.83;;
84021;SDS011;74108;48.636;9.492;2024-02-15T01:40:15;6.07;;;3.10;;
84021;SDS011;74108;48.636;9.492;2024-02-15T01:42:41;5.00;;;3.25;;
84021;SDS011;74108;48.636;9.492;2024-02-15T01:45:06;5.07;;;3.03;;
84021;SDS011;74108;48.636;9.492;2024-02-15T01:47:32;5.97;;;3.08;;
84021;SDS011;74108;48.636;9.492;2024-02-15T01:49:58;4.53;;;2.80;;
84021;SDS011;74108;48.636;9.492;2024-02-15T01:52:23;4.25;;;2.60;;
84021;SDS011;74108;48.636;9.492;2024-02-15T01:54:52;4.97;;;2.40;;
84021;SDS011;74108;48.636;9.492;2024-02-15T01:57:19;5.10;;;2.65;;
84021;SDS011;74108;48.636;9.492;2024-02-15T01:59:49;5.47;;;2.70;;
84021;SDS011;74108;48.636;9.492;2024-02-15T02:02:16;6.20;;;2.60;;
84021;SDS011;74108;48.636;9.492;2024-02-15T02:04:45;6.60;;;2.60;;
84021;SDS011;74108;48.636;9.492;2024-02-15T02:07:11;4.10;;;2.58;;
84021;SDS011;74108;48.636;9.492;2024-02-15T02:09:36;6.50;;;3.40;;
84021;SDS011;74108;48.636;9.492;2024-02-15T02:12:02;7.35;;;3.30;;
84021;SDS011;74108;48.636;9.492;2024-02-15T02:14:28;5.75;;;2.70;;
84021;SDS011;74108;48.636;9.492;2024-02-15T02:16:54;5.35;;;2.42;;
84021;SDS011;74108;48.636;9.492;2024-02-15T02:19:20;4.35;;;2.35;;
84021;SDS011;74108;48.636;9.492;2024-02-15T02:21:45;5.85;;;2.22;;
84021;SDS011;74108;48.636;9.492;2024-02-15T02:24:21;4.50;;;2.50;;
84021;SDS011;74108;48.636;9.492;2024-02-15T02:26:48;4.75;;;2.60;;
84021;SDS011;74108;48.636;9.492;2024-02-15T02:29:15;4.35;;;2.60;;
84021;SDS011;74108;48.636;9.492;2024-02-15T02:31:41;5.30;;;2.80;;
84021;SDS011;74108;48.636;9.492;2024-02-15T02:34:07;6.43;;;3.25;;
84021;SDS011;74108;48.636;9.492;2024-02-15T02:36:34;5.53;;;2.50;;
84021;SDS011;74108;48.636;9.492;2024-02-15T02:38:59;5.88;;;2.65;;
84021;SDS011;74108;48.636;9.492;2024-02-15T02:41:26;4.28;;;2.58;;
84021;SDS011;74108;48.636;9.492;2024-02-15T02:43:53;5.68;;;2.97;;
84021;SDS011;74108;48.636;9.492;2024-02-15T02:46:20;3.95;;;2.47;;
84021;SDS011;74108;48.636;9.492;2024-02-15T02:48:45;5.63;;;2.90;;
84021;SDS011;74108;48.636;9.492;2024-02-15T02:51:11;4.97;;;2.50;;
84021;SDS011;74108;48.636;9.492;2024-02-15T02:53:36;5.32;;;2.83;;
84021;SDS011;74108;48.636;9.492;2024-02-15T02:56:03;5.10;;;2.97;;
84021;SDS011;74108;48.636;9.492;2024-02-15T02:58:29;4.70;;;2.80;;
84021;SDS011;74108;48.636;9.492;2024-02-15T03:00:54;6.90;;;3.13;;
84021;SDS011;74108;48.636;9.492;2024-02-15T03:03:21;4.65;;;2.83;;
84021;SDS011;74108;48.636;9.492;2024-02-15T03:05:49;5.68;;;2.80;;
84021;SDS011;74108;48.636;9.492;2024-02-15T03:08:14;3.88;;;3.00;;
84021;SDS011;74108;48.636;9.492;2024-02-15T03:10:43;7.22;;;2.70;;
84021;SDS011;74108;48.636;9.492;2024-02-15T03:13:08;5.68;;;2.75;;
84021;SDS011;74108;48.636;9.492;2024-02-15T03:15:34;4.32;;;2.30;;
84021;SDS011;74108;48.636;9.492;2024-02-15T03:18:00;6.35;;;2.58;;
84021;SDS011;74108;48.636;9.492;2024-02-15T03:20:25;4.85;;;2.10;;
84021;SDS011;74108;48.636;9.492;2024-02-15T03:22:51;7.43;;;2.50;;
84021;SDS011;74108;48.636;9.492;2024-02-15T03:25:20;4.13;;;2.20;;
84021;SDS011;74108;48.636;9.492;2024-02-15T03:27:49;5.85;;;2.20;;
84021;SDS011;74108;48.636;9.492;2024-02-15T03:32:42;4.88;;;2.13;;
84021;SDS011;74108;48.636;9.492;2024-02-15T03:35:07;3.47;;;2.03;;
84021;SDS011;74108;48.636;9.492;2024-02-15T03:37:33;2.42;;;1.80;;
84021;SDS011;74108;48.636;9.492;2024-02-15T03:40:04;4.63;;;1.80;;
84021;SDS011;74108;48.636;9.492;2024-02-15T03:42:30;4.07;;;2.00;;
84021;SDS011;74108;48.636;9.492;2024-02-15T03:44:56;3.70;;;1.90;;
84021;SDS011;74108;48.636;9.492;2024-02-15T03:47:21;2.92;;;1.83;;
84021;SDS011;74108;48.636;9.492;2024-02-15T03:49:46;4.60;;;1.95;;
84021;SDS011;74108;48.636;9.492;2024-02-15T03:52:12;4.35;;;1.90;;
84021;SDS011;74108;48.636;9.492;2024-02-15T03:54:37;3.08;;;1.80;;
84021;SDS011;74108;48.636;9.492;2024-02-15T03:57:03;4.93;;;1.90;;
84021;SDS011;74108;48.636;9.492;2024-02-15T03:59:29;3.05;;;1.70;;
84021;SDS011;74108;48.636;9.492;2024-02-15T04:04:22;3.20;;;1.87;;
84021;SDS011;74108;48.636;9.492;2024-02-15T04:06:51;3.45;;;2.00;;
84021;SDS011;74108;48.636;9.492;2024-02-15T04:09:17;3.20;;;1.90;;
84021;SDS011;74108;48.636;9.492;2024-02-15T04:11:46;3.97;;;2.10;;
84021;SDS011;74108;48.636;9.492;2024-02-15T04:14:15;4.53;;;2.08;;
84021;SDS011;74108;48.636;9.492;2024-02-15T04:16:43;4.00;;;2.10;;
84021;SDS011;74108;48.636;9.492;2024-02-15T04:19:09;3.13;;;1.80;;
84021;SDS011;74108;48.636;9.492;2024-02-15T04:21:34;3.88;;;2.00;;
84021;SDS011;74108;48.636;9.492;2024-02-15T04:24:00;4.45;;;2.00;;
84021;SDS011;74108;48.636;9.492;2024-02-15T04:26:25;2.92;;;1.80;;
84021;SDS011;74108;48.636;9.492;2024-02-15T04:28:52;4.65;;;2.38;;
84021;SDS011;74108;48.636;9.492;2024-02-15T04:31:18;4.22;;;2.00;;
84021;SDS011;74108;48.636;9.492;2024-02-15T04:33:45;2.67;;;1.73;;
84021;SDS011;74108;48.636;9.492;2024-02-15T04:36:13;3.47;;;1.80;;
84021;SDS011;74108;48.636;9.492;2024-02-15T04:38:40;3.45;;;1.88;;
84021;SDS011;74108;48.636;9.492;2024-02-15T04:41:05;4.22;;;2.00;;
84021;SDS011;74108;48.636;9.492;2024-02-15T04:43:34;5.00;;;2.03;;
84021;SDS011;74108;48.636;9.492;2024-02-15T04:46:02;3.17;;;1.98;;
84021;SDS011;74108;48.636;9.492;2024-02-15T04:48:32;4.10;;;2.00;;
84021;SDS011;74108;48.636;9.492;2024-02-15T04:51:02;3.17;;;1.85;;
84021;SDS011;74108;48.636;9.492;2024-02-15T04:53:27;3.20;;;1.80;;
84021;SDS011;74108;48.636;9.492;2024-02-15T04:55:54;2.25;;;1.50;;
84021;SDS011;74108;48.636;9.492;2024-02-15T04:58:20;2.90;;;1.90;;
84021;SDS011;74108;48.636;9.492;2024-02-15T05:00:45;3.65;;;1.70;;
84021;SDS011;74108;48.636;9.492;2024-02-15T05:03:12;5.00;;;2.00;;
84021;SDS011;74108;48.636;9.492;2024-02-15T05:05:37;5.38;;;2.28;;
84021;SDS011;74108;48.636;9.492;2024-02-15T05:08:04;3.42;;;1.90;;
84021;SDS011;74108;48.636;9.492;2024-02-15T05:10:29;6.30;;;3.10;;
84021;SDS011;74108;48.636;9.492;2024-02-15T05:12:55;3.50;;;1.90;;
84021;SDS011;74108;48.636;9.492;2024-02-15T05:15:21;3.58;;;2.00;;
84021;SDS011;74108;48.636;9.492;2024-02-15T05:17:50;3.55;;;2.10;;
84021;SDS011;74108;48.636;9.492;2024-02-15T05:20:15;3.70;;;1.90;;
84021;SDS011;74108;48.636;9.492;2024-02-15T05:22:41;5.25;;;2.08;;
84021;SDS011;74108;48.636;9.492;2024-02-15T05:25:10;3.55;;;2.08;;
84021;SDS011;74108;48.636;9.492;2024-02-15T05:27:37;4.45;;;1.98;;
84021;SDS011;74108;48.636;9.492;2024-02-15T05:30:03;4.65;;;2.30;;
84021;SDS011;74108;48.636;9.492;2024-02-15T05:32:35;5.15;;;2.20;;
84021;SDS011;74108;48.636;9.492;2024-02-15T05:37:36;5.57;;;2.50;;
84021;SDS011;74108;48.636;9.492;2024-02-15T05:40:01;3.58;;;1.95;;
84021;SDS011;74108;48.636;9.492;2024-02-15T05:42:27;4.00;;;1.65;;
84021;SDS011;74108;48.636;9.492;2024-02-15T05:44:52;3.55;;;2.00;;
84021;SDS011;74108;48.636;9.492;2024-02-15T05:47:17;3.67;;;1.95;;
84021;SDS011;74108;48.636;9.492;2024-02-15T05:49:43;3.38;;;1.98;;
84021;SDS011;74108;48.636;9.492;2024-02-15T05:52:10;3.95;;;2.03;;
84021;SDS011;74108;48.636;9.492;2024-02-15T05:54:36;4.32;;;2.00;;
84021;SDS011;74108;48.636;9.492;2024-02-15T05:57:01;6.20;;;1.70;;
84021;SDS011;74108;48.636;9.492;2024-02-15T05:59:26;4.22;;;2.20;;
84021;SDS011;74108;48.636;9.492;2024-02-15T06:01:52;3.92;;;1.80;;
84021;SDS011;74108;48.636;9.492;2024-02-15T06:04:17;3.58;;;1.85;;
84021;SDS011;74108;48.636;9.492;2024-02-15T06:06:43;2.78;;;1.95;;
84021;SDS011;74108;48.636;9.492;2024-02-15T06:09:13;4.10;;;2.30;;
84021;SDS011;74108;48.636;9.492;2024-02-15T06:11:38;7.25;;;2.10;;
84021;SDS011;74108;48.636;9.492;2024-02-15T06:14:04;3.83;;;2.15;;
84021;SDS011;74108;48.636;9.492;2024-02-15T06:16:40;2.35;;;1.60;;
84021;SDS011;74108;48.636;9.492;2024-02-15T06:19:07;2.83;;;1.80;;
84021;SDS011;74108;48.636;9.492;2024-02-15T06:21:32;4.10;;;1.90;;
84021;SDS011;74108;48.636;9.492;2024-02-15T06:23:57;7.45;;;2.30;;
84021;SDS011;74108;48.636;9.492;2024-02-15T06:26:23;3.53;;;1.85;;
84021;SDS011;74108;48.636;9.492;2024-02-15T06:28:50;3.35;;;1.90;;
84021;SDS011;74108;48.636;9.492;2024-02-15T06:31:34;4.40;;;2.20;;
84021;SDS011;74108;48.636;9.492;2024-02-15T06:34:18;6.07;;;2.38;;
84021;SDS011;74108;48.636;9.492;2024-02-15T06:37:02;4.50;;;1.70;;
84021;SDS011;74108;48.636;9.492;2024-02-15T06:39:45;4.88;;;2.10;;
84021;SDS011;74108;48.636;9.492;2024-02-15T06:42:11;4.32;;;2.10;;
84021;SDS011;74108;48.636;9.492;2024-02-15T06:44:46;4.38;;;2.35;;
84021;SDS011;74108;48.636;9.492;2024-02-15T06:47:13;4.18;;;2.50;;
84021;SDS011;74108;48.636;9.492;2024-02-15T06:49:42;4.63;;;2.38;;
84021;SDS011;74108;48.636;9.492;2024-02-15T06:52:10;3.28;;;2.03;;
84021;SDS011;74108;48.636;9.492;2024-02-15T06:54:37;4.43;;;2.30;;
84021;SDS011;74108;48.636;9.492;2024-02-15T06:57:04;5.10;;;2.63;;
84021;SDS011;74108;48.636;9.492;2024-02-15T06:59:29;4.93;;;2.58;;
84021;SDS011;74108;48.636;9.492;2024-02-15T07:01:57;5.68;;;2.88;;
84021;SDS011;74108;48.636;9.492;2024-02-15T07:04:25;6.38;;;2.78;;
84021;SDS011;74108;48.636;9.492;2024-02-15T07:06:51;4.72;;;2.35;;
84021;SDS011;74108;48.636;9.492;2024-02-15T07:09:19;3.83;;;2.30;;
84021;SDS011;74108;48.636;9.492;2024-02-15T07:11:46;7.00;;;3.17;;
84021;SDS011;74108;48.636;9.492;2024-02-15T07:14:12;4.68;;;2.38;;
84021;SDS011;74108;48.636;9.492;2024-02-15T07:16:38;6.53;;;2.90;;
84021;SDS011;74108;48.636;9.492;2024-02-15T07:19:03;4.80;;;2.80;;
84021;SDS011;74108;48.636;9.492;2024-02-15T07:21:29;5.35;;;2.70;;
84021;SDS011;74108;48.636;9.492;2024-02-15T07:23:56;7.20;;;2.95;;
84021;SDS011;74108;48.636;9.492;2024-02-15T07:26:22;6.38;;;3.00;;
84021;SDS011;74108;48.636;9.492;2024-02-15T07:28:53;10.68;;;3.58;;
84021;SDS011;74108;48.636;9.492;2024-02-15T07:31:19;6.50;;;3.25;;
84021;SDS011;74108;48.636;9.492;2024-02-15T07:33:48;6.85;;;3.70;;
84021;SDS011;74108;48.636;9.492;2024-02-15T07:36:19;9.70;;;3.58;;
84021;SDS011;74108;48.636;9.492;2024-02-15T07:38:48;8.55;;;3.67;;
84021;SDS011;74108;48.636;9.492;2024-02-15T07:41:18;7.45;;;4.13;;
84021;SDS011;74108;48.636;9.492;2024-02-15T07:43:50;7.13;;;3.60;;
84021;SDS011;74108;48.636;9.492;2024-02-15T07:46:19;12.95;;;4.05;;
84021;SDS011;74108;48.636;9.492;2024-02-15T07:48:44;7.70;;;3.40;;
84021;SDS011;74108;48.636;9.492;2024-02-15T07:51:12;7.57;;;3.20;;
84021;SDS011;74108;48.636;9.492;2024-02-15T07:53:38;8.75;;;3.60;;
84021;SDS011;74108;48.636;9.492;2024-02-15T07:56:05;8.35;;;3.40;;
84021;SDS011;74108;48.636;9.492;2024-02-15T07:58:31;7.45;;;4.00;;
84021;SDS011;74108;48.636;9.492;2024-02-15T08:00:56;6.68;;;3.40;;
84021;SDS011;74108;48.636;9.492;2024-02-15T08:03:22;10.10;;;4.07;;
84021;SDS011;74108;48.636;9.492;2024-02-15T08:05:48;7.43;;;3.75;;
84021;SDS011;74108;48.636;9.492;2024-02-15T08:08:13;7.70;;;3.90;;
84021;SDS011;74108;48.636;9.492;2024-02-15T08:10:38;7.20;;;3.70;;
84021;SDS011;74108;48.636;9.492;2024-02-15T08:13:04;5.60;;;3.30;;
84021;SDS011;74108;48.636;9.492;2024-02-15T08:15:29;9.05;;;4.47;;
84021;SDS011;74108;48.636;9.492;2024-02-15T08:17:55;6.88;;;3.33;;
84021;SDS011;74108;48.636;9.492;2024-02-15T08:20:20;9.07;;;4.10;;
84021;SDS011;74108;48.636;9.492;2024-02-15T08:22:48;7.75;;;3.65;;
84021;SDS011;74108;48.636;9.492;2024-02-15T08:25:14;7.18;;;3.53;;
84021;SDS011;74108;48.636;9.492;2024-02-15T08:27:48;7.05;;;3.55;;
84021;SDS011;74108;48.636;9.492;2024-02-15T08:30:17;7.18;;;3.72;;
84021;SDS011;74108;48.636;9.492;2024-02-15T08:32:43;5.70;;;3.92;;
84021;SDS011;74108;48.636;9.492;2024-02-15T08:35:11;6.53;;;3.50;;
84021;SDS011;74108;48.636;9.492;2024-02-15T08:37:40;16.17;;;7.35;;
84021;SDS011;74108;48.636;9.492;2024-02-15T08:40:08;5.18;;;3.40;;
84021;SDS011;74108;48.636;9.492;2024-02-15T08:42:39;6.78;;;3.70;;
84021;SDS011;74108;48.636;9.492;2024-02-15T08:45:06;5.85;;;3.25;;
84021;SDS011;74108;48.636;9.492;2024-02-15T08:47:34;5.55;;;3.38;;
84021;SDS011;74108;48.636;9.492;2024-02-15T08:50:02;5.30;;;3.20;;
84021;SDS011;74108;48.636;9.492;2024-02-15T08:52:29;6.72;;;3.20;;
84021;SDS011;74108;48.636;9.492;2024-02-15T08:54:54;5.07;;;3.50;;
84021;SDS011;74108;48.636;9.492;2024-02-15T08:57:20;4.25;;;3.20;;
84021;SDS011;74108;48.636;9.492;2024-02-15T08:59:46;5.72;;;3.35;;
84021;SDS011;74108;48.636;9.492;2024-02-15T09:02:12;7.28;;;3.17;;
84021;SDS011;74108;48.636;9.492;2024-02-15T09:04:39;4.57;;;3.10;;
84021;SDS011;74108;48.636;9.492;2024-02-15T09:07:06;6.05;;;3.33;;
84021;SDS011;74108;48.636;9.492;2024-02-15T09:09:32;6.15;;;3.00;;
84021;SDS011;74108;48.636;9.492;2024-02-15T09:12:00;4.82;;;3.10;;
84021;SDS011;74108;48.636;9.492;2024-02-15T09:14:30;7.35;;;3.72;;
84021;SDS011;74108;48.636;9.492;2024-02-15T09:17:02;8.23;;;3.38;;
84021;SDS011;74108;48.636;9.492;2024-02-15T09:19:32;5.85;;;2.85;;
84021;SDS011;74108;48.636;9.492;2024-02-15T09:21:58;4.25;;;2.97;;
84021;SDS011;74108;48.636;9.492;2024-02-15T09:24:23;5.50;;;3.10;;
84021;SDS011;74108;48.636;9.492;2024-02-15T09:26:50;5.97;;;3.10;;
84021;SDS011;74108;48.636;9.492;2024-02-15T09:29:17;4.63;;;2.83;;
84021;SDS011;74108;48.636;9.492;2024-02-15T09:31:45;4.68;;;3.30;;
84021;SDS011;74108;48.636;9.492;2024-02-15T09:34:14;7.30;;;3.70;;
84021;SDS011;74108;48.636;9.492;2024-02-15T09:36:40;5.78;;;3.15;;
84021;SDS011;74108;48.636;9.492;2024-02-15T09:39:05;4.97;;;3.20;;
84021;SDS011;74108;48.636;9.492;2024-02-15T09:41:31;4.38;;;3.15;;
84021;SDS011;74108;48.636;9.492;2024-02-15T09:43:58;6.40;;;3.50;;
84021;SDS011;74108;48.636;9.492;2024-02-15T09:46:24;5.13;;;3.15;;
84021;SDS011;74108;48.636;9.492;2024-02-15T09:48:51;4.45;;;3.10;;
84021;SDS011;74108;48.636;9.492;2024-02-15T09:51:19;5.30;;;2.90;;
84021;SDS011;74108;48.636;9.492;2024-02-15T09:53:46;5.80;;;3.05;;
84021;SDS011;74108;48.636;9.492;2024-02-15T09:56:12;5.70;;;2.80;;
84021;SDS011;74108;48.636;9.492;2024-02-15T09:58:39;4.43;;;2.67;;
84021;SDS011;74108;48.636;9.492;2024-02-15T10:01:04;5.57;;;2.30;;
84021;SDS011;74108;48.636;9.492;2024-02-15T10:03:34;6.10;;;2.50;;
84021;SDS011;74108;48.636;9.492;2024-02-15T10:06:02;3.55;;;2.00;;
84021;SDS011;74108;48.636;9.492;2024-02-15T10:08:29;4.50;;;2.15;;
84021;SDS011;74108;48.636;9.492;2024-02-15T10:11:09;4.97;;;2.30;;
84021;SDS011;74108;48.636;9.492;2024-02-15T10:13:35;4.35;;;2.20;;
84021;SDS011;74108;48.636;9.492;2024-02-15T10:16:18;3.85;;;1.90;;
84021;SDS011;74108;48.636;9.492;2024-02-15T10:18:45;4.18;;;1.90;;
84021;SDS011;74108;48.636;9.492;2024-02-15T10:21:33;2.75;;;1.70;;
84021;SDS011;74108;48.636;9.492;2024-02-15T10:24:06;2.85;;;1.80;;
84021;SDS011;74108;48.636;9.492;2024-02-15T10:26:32;3.20;;;1.52;;
84021;SDS011;74108;48.636;9.492;2024-02-15T10:29:09;1.95;;;1.40;;
84021;SDS011;74108;48.636;9.492;2024-02-15T10:31:37;4.50;;;1.70;;
84021;SDS011;74108;48.636;9.492;2024-02-15T10:34:06;3.88;;;1.65;;
84021;SDS011;74108;48.636;9.492;2024-02-15T10:36:32;3.58;;;1.50;;
84021;SDS011;74108;48.636;9.492;2024-02-15T10:39:11;3.60;;;1.48;;
84021;SDS011;74108;48.636;9.492;2024-02-15T10:41:42;3.05;;;1.60;;
84021;SDS011;74108;48.636;9.492;2024-02-15T10:44:09;3.95;;;1.55;;
84021;SDS011;74108;48.636;9.492;2024-02-15T10:46:40;5.53;;;1.50;;
84021;SDS011;74108;48.636;9.492;2024-02-15T10:49:06;3.42;;;1.65;;
84021;SDS011;74108;48.636;9.492;2024-02-15T10:51:32;5.43;;;1.50;;
84021;SDS011;74108;48.636;9.492;2024-02-15T10:54:02;3.10;;;1.52;;
84021;SDS011;74108;48.636;9.492;2024-02-15T10:56:34;4.78;;;1.77;;
84021;SDS011;74108;48.636;9.492;2024-02-15T11:04:12;3.20;;;1.23;;
84021;SDS011;74108;48.636;9.492;2024-02-15T11:06:41;1.90;;;1.30;;
84021;SDS011;74108;48.636;9.492;2024-02-15T11:09:09;2.40;;;1.33;;
84021;SDS011;74108;48.636;9.492;2024-02-15T11:11:37;1.95;;;1.20;;
84021;SDS011;74108;48.636;9.492;2024-02-15T11:14:22;2.70;;;1.40;;
84021;SDS011;74108;48.636;9.492;2024-02-15T11:16:48;2.47;;;1.20;;
84021;SDS011;74108;48.636;9.492;2024-02-15T11:21:57;2.88;;;1.27;;
84021;SDS011;74108;48.636;9.492;2024-02-15T11:24:32;2.83;;;1.13;;
84021;SDS011;74108;48.636;9.492;2024-02-15T11:27:05;4.07;;;1.30;;
84021;SDS011;74108;48.636;9.492;2024-02-15T11:29:51;2.60;;;1.15;;
84021;SDS011;74108;48.636;9.492;2024-02-15T11:40:21;4.03;;;1.17;;
84021;SDS011;74108;48.636;9.492;2024-02-15T11:45:28;3.03;;;1.30;;
84021;SDS011;74108;48.636;9.492;2024-02-15T11:48:12;2.67;;;1.50;;
84021;SDS011;74108;48.636;9.492;2024-02-15T11:50:38;2.33;;;1.20;;
84021;SDS011;74108;48.636;9.492;2024-02-15T11:53:07;2.03;;;1.20;;
84021;SDS011;74108;48.636;9.492;2024-02-15T11:55:36;2.50;;;1.33;;
84021;SDS011;74108;48.636;9.492;2024-02-15T11:58:03;3.55;;;1.45;;
84021;SDS011;74108;48.636;9.492;2024-02-15T12:00:36;3.10;;;1.30;;
84021;SDS011;74108;48.636;9.492;2024-02-15T12:03:21;2.05;;;1.20;;
84021;SDS011;74108;48.636;9.492;2024-02-15T12:06:08;2.20;;;1.30;;
84021;SDS011;74108;48.636;9.492;2024-02-15T12:08:52;2.40;;;1.23;;
84021;SDS011;74108;48.636;9.492;2024-02-15T12:11:37;1.73;;;1.10;;
84021;SDS011;74108;48.636;9.492;2024-02-15T12:14:22;2.13;;;1.17;;
84021;SDS011;74108;48.636;9.492;2024-02-15T12:17:07;2.95;;;1.35;;
84021;SDS011;74108;48.636;9.492;2024-02-15T12:19:54;3.03;;;1.20;;
84021;SDS011;74108;48.636;9.492;2024-02-15T12:25:15;2.15;;;1.20;;
84021;SDS011;74108;48.636;9.492;2024-02-15T12:27:42;2.72;;;1.20;;
84021;SDS011;74108;48.636;9.492;2024-02-15T12:30:17;7.75;;;1.50;;
84021;SDS011;74108;48.636;9.492;2024-02-15T12:32:49;4.72;;;1.42;;
84021;SDS011;74108;48.636;9.492;2024-02-15T12:35:20;2.65;;;1.33;;
84021;SDS011;74108;48.636;9.492;2024-02-15T12:37:49;1.85;;;1.10;;
84021;SDS011;74108;48.636;9.492;2024-02-15T12:40:37;3.33;;;1.38;;
84021;SDS011;74108;48.636;9.492;2024-02-15T12:43:09;3.10;;;1.30;;
84021;SDS011;74108;48.636;9.492;2024-02-15T12:45:35;3.13;;;1.10;;
84021;SDS011;74108;48.636;9.492;2024-02-15T12:48:05;2.40;;;1.27;;
84021;SDS011;74108;48.636;9.492;2024-02-15T12:50:31;1.42;;;1.00;;
84021;SDS011;74108;48.636;9.492;2024-02-15T12:52:57;2.15;;;1.20;;
84021;SDS011;74108;48.636;9.492;2024-02-15T12:55:33;2.80;;;1.20;;
84021;SDS011;74108;48.636;9.492;2024-02-15T12:58:03;1.70;;;1.10;;
84021;SDS011;74108;48.636;9.492;2024-02-15T13:00:33;2.22;;;1.00;;
84021;SDS011;74108;48.636;9.492;2024-02-15T13:03:04;2.60;;;1.30;;
84021;SDS011;74108;48.636;9.492;2024-02-15T13:05:34;2.17;;;1.20;;
84021;SDS011;74108;48.636;9.492;2024-02-15T13:07:59;3.90;;;1.40;;
84021;SDS011;74108;48.636;9.492;2024-02-15T13:10:27;2.67;;;1.70;;
84021;SDS011;74108;48.636;9.492;2024-02-15T13:12:53;3.00;;;1.20;;
84021;SDS011;74108;48.636;9.492;2024-02-15T13:15:20;2.47;;;1.38;;
84021;SDS011;74108;48.636;9.492;2024-02-15T13:17:47;2.58;;;1.30;;
84021;SDS011;74108;48.636;9.492;2024-02-15T13:20:19;2.35;;;1.10;;
84021;SDS011;74108;48.636;9.492;2024-02-15T13:22:57;4.03;;;1.20;;
84021;SDS011;74108;48.636;9.492;2024-02-15T13:25:28;2.53;;;1.20;;
84021;SDS011;74108;48.636;9.492;2024-02-15T13:27:55;3.85;;;1.30;;
84021;SDS011;74108;48.636;9.492;2024-02-15T13:30:21;2.55;;;1.40;;
84021;SDS011;74108;48.636;9.492;2024-02-15T13:32:51;2.40;;;1.13;;
84021;SDS011;74108;48.636;9.492;2024-02-15T13:35:17;3.17;;;1.23;;
84021;SDS011;74108;48.636;9.492;2024-02-15T13:37:48;2.05;;;1.10;;
84021;SDS011;74108;48.636;9.492;2024-02-15T13:40:23;4.75;;;1.10;;
84021;SDS011;74108;48.636;9.492;2024-02-15T13:42:52;3.78;;;1.40;;
84021;SDS011;74108;48.636;9.492;2024-02-15T13:45:28;2.70;;;1.10;;
84021;SDS011;74108;48.636;9.492;2024-02-15T13:47:57;5.18;;;3.00;;
84021;SDS011;74108;48.636;9.492;2024-02-15T13:50:28;3.50;;;1.40;;
84021;SDS011;74108;48.636;9.492;2024-02-15T13:52:54;3.97;;;1.20;;
84021;SDS011;74108;48.636;9.492;2024-02-15T13:55:19;2.83;;;1.50;;
84021;SDS011;74108;48.636;9.492;2024-02-15T13:57:48;2.15;;;1.38;;
84021;SDS011;74108;48.636;9.492;2024-02-15T14:00:14;2.10;;;1.15;;
84021;SDS011;74108;48.636;9.492;2024-02-15T14:02:50;3.72;;;1.30;;
84021;SDS011;74108;48.636;9.492;2024-02-15T14:05:20;3.30;;;0.93;;
84021;SDS011;74108;48.636;9.492;2024-02-15T14:07:49;3.47;;;1.30;;
84021;SDS011;74108;48.636;9.492;2024-02-15T14:10:17;4.60;;;1.30;;
84021;SDS011;74108;48.636;9.492;2024-02-15T14:12:46;3.08;;;1.40;;
84021;SDS011;74108;48.636;9.492;2024-02-15T14:15:13;3.78;;;1.30;;
84021;SDS011;74108;48.636;9.492;2024-02-15T14:17:40;2.78;;;1.30;;
84021;SDS011;74108;48.636;9.492;2024-02-15T14:20:06;2.45;;;1.23;;
84021;SDS011;74108;48.636;9.492;2024-02-15T14:22:36;3.35;;;1.40;;
84021;SDS011;74108;48.636;9.492;2024-02-15T14:25:01;4.82;;;1.40;;
84021;SDS011;74108;48.636;9.492;2024-02-15T14:27:29;3.35;;;1.52;;
84021;SDS011;74108;48.636;9.492;2024-02-15T14:29:54;3.17;;;1.70;;
84021;SDS011;74108;48.636;9.492;2024-02-15T14:32:38;2.78;;;1.50;;
84021;SDS011;74108;48.636;9.492;2024-02-15T14:35:22;2.35;;;1.27;;
84021;SDS011;74108;48.636;9.492;2024-02-15T14:37:48;3.10;;;1.40;;
84021;SDS011;74108;48.636;9.492;2024-02-15T14:40:14;2.85;;;1.63;;
84021;SDS011;74108;48.636;9.492;2024-02-15T14:42:39;2.97;;;1.40;;
84021;SDS011;74108;48.636;9.492;2024-02-15T14:45:07;2.58;;;1.60;;
84021;SDS011;74108;48.636;9.492;2024-02-15T14:47:34;2.97;;;1.60;;
84021;SDS011;74108;48.636;9.492;2024-02-15T14:49:59;2.40;;;1.45;;
84021;SDS011;74108;48.636;9.492;2024-02-15T14:52:25;2.60;;;1.50;;
84021;SDS011;74108;48.636;9.492;2024-02-15T14:54:51;3.30;;;1.60;;
84021;SDS011;74108;48.636;9.492;2024-02-15T14:57:17;3.38;;;1.45;;
84021;SDS011;74108;48.636;9.492;2024-02-15T14:59:42;3.22;;;1.50;;
84021;SDS011;74108;48.636;9.492;2024-02-15T15:02:10;4.68;;;1.60;;
84021;SDS011;74108;48.636;9.492;2024-02-15T15:07:21;3.55;;;1.80;;
84021;SDS011;74108;48.636;9.492;2024-02-15T15:10:05;4.72;;;1.75;;
84021;SDS011;74108;48.636;9.492;2024-02-15T15:12:50;4.90;;;1.55;;
84021;SDS011;74108;48.636;9.492;2024-02-15T15:15:16;15.48;;;5.03;;
84021;SDS011;74108;48.636;9.492;2024-02-15T15:17:43;4.05;;;1.98;;
84021;SDS011;74108;48.636;9.492;2024-02-15T15:20:11;3.13;;;1.75;;
84021;SDS011;74108;48.636;9.492;2024-02-15T15:22:37;2.70;;;1.70;;
84021;SDS011;74108;48.636;9.492;2024-02-15T15:25:02;4.25;;;1.75;;